Terminal Aerodrome Forecast
Issued by NWS

Home | Current Version | Previous Version | Text Only | Print | Product List | Glossary On
Versions: 1 2 3 4 5 6 7 8 9 10 11 12 13 14 15 16 17
981
FTUS43 KPAH 270235 AAB
TAFCGI
TAF AMD
KCGI 270235Z 2703/2724 20005KT P6SM BKN050
     FM270800 23005KT P6SM SCT009 BKN015
      TEMPO 2709/2713 5SM BR
     FM271500 19008KT P6SM SCT025 BKN035=

USA.gov is the U.S. government's official web portal to all federal, state and local government web resources and services.